University Of Richmond, VA (23173)

10:43 AM EST on December 07, 2016 (GMT -0500)
Richmond | | Change Station

Elev 0 ft 37.60 °N, 77.55 °W | Updated 8 minutes ago

Clear
Clear
46.9 °F
Feels Like 47 °F
N
1.2
Wind Variable Wind from East
Gusts 5.6 mph

Today
High -- | Low -- °F
--% Chance of Precip.
Yesterday
High -- | Low -- °F
Precip. -- in
Pressure 30.07 in
Visibility 10.0 miles
Clouds Clear
Windchill 47 °F
Dew Point 47 °F
Humidity 100%
Rainfall 0.00 in
Snow Depth Not available.
7:12 AM 4:51 PM
First Quarter, 53% visible
METAR KOFP 071454Z AUTO 00000KT 10SM CLR 09/04 A3007 RMK AO2 SLP181 T00890044 53017
Pressure 30.07 in
Visibility 10.0 miles
Clouds Clear
Windchill 47 °F
Dew Point 47 °F
Humidity 100%
Rainfall 0.00 in
Snow Depth Not available.
7:12 AM 4:51 PM
First Quarter, 53% visible
METAR KOFP 071454Z AUTO 00000KT 10SM CLR 09/04 A3007 RMK AO2 SLP181 T00890044 53017

10-Day Weather Forecast

Almanac

Astronomy

Dec. 07, 2016 Rise Set
Actual Time
Civil Twilight
Nautical Twilight
Astronomical Twilight
Moon
Length of Visible Light
Length of Day
Tomorrow will be .
, % of the Moon is Illuminated

Today's Extremes

State Highs State Lows

Community

WunderPhotos

Upload Photos

1,956,114 photos uploaded!

WunderBlog® & News

Nearby

Air Quality

  Air Quality AQ Index Pollutant
Not available.

Snow Depth

Station Depth Elevation

Earthquake Activity

City Distance Mag. Time & Date
Minimum magnitude displayed is 2.5.

Coastal Water Temperatures

Place Temperature

Stations

Nearby Weather Stations

Station Location Temp. Windchill Dew Point Humidity Wind Precip. Elev Updated Type
                   

Watches & Warnings

There are currently no watches in effect.